sensor_id;sensor_type;location;lat;lon;timestamp;P1;durP1;ratioP1;P2;durP2;ratioP2
41446;SDS011;27185;52.040;4.490;2023-04-01T00:00:05;81.10;;;14.13;;
41446;SDS011;27185;52.040;4.490;2023-04-01T00:02:51;59.83;;;12.63;;
41446;SDS011;27185;52.040;4.490;2023-04-01T00:05:37;65.43;;;12.10;;
41446;SDS011;27185;52.040;4.490;2023-04-01T00:08:23;65.00;;;12.50;;
41446;SDS011;27185;52.040;4.490;2023-04-01T00:11:10;58.17;;;11.48;;
41446;SDS011;27185;52.040;4.490;2023-04-01T00:13:55;55.00;;;11.63;;
41446;SDS011;27185;52.040;4.490;2023-04-01T00:16:41;55.33;;;11.85;;
41446;SDS011;27185;52.040;4.490;2023-04-01T00:19:26;41.47;;;8.75;;
41446;SDS011;27185;52.040;4.490;2023-04-01T00:22:13;38.25;;;9.35;;
41446;SDS011;27185;52.040;4.490;2023-04-01T00:24:58;35.08;;;8.40;;
41446;SDS011;27185;52.040;4.490;2023-04-01T00:27:44;28.55;;;6.65;;
41446;SDS011;27185;52.040;4.490;2023-04-01T00:30:30;40.72;;;8.10;;
41446;SDS011;27185;52.040;4.490;2023-04-01T00:33:15;39.45;;;8.32;;
41446;SDS011;27185;52.040;4.490;2023-04-01T00:36:09;33.85;;;7.53;;
41446;SDS011;27185;52.040;4.490;2023-04-01T00:38:57;32.83;;;6.63;;
41446;SDS011;27185;52.040;4.490;2023-04-01T00:41:44;31.60;;;6.38;;
41446;SDS011;27185;52.040;4.490;2023-04-01T00:44:31;30.90;;;6.80;;
41446;SDS011;27185;52.040;4.490;2023-04-01T00:47:18;33.05;;;7.68;;
41446;SDS011;27185;52.040;4.490;2023-04-01T00:50:04;53.15;;;9.65;;
41446;SDS011;27185;52.040;4.490;2023-04-01T00:52:50;44.58;;;9.95;;
41446;SDS011;27185;52.040;4.490;2023-04-01T00:55:37;45.83;;;8.88;;
41446;SDS011;27185;52.040;4.490;2023-04-01T00:58:26;35.75;;;8.55;;
41446;SDS011;27185;52.040;4.490;2023-04-01T01:04:00;35.17;;;7.40;;
41446;SDS011;27185;52.040;4.490;2023-04-01T01:06:54;38.03;;;7.50;;
41446;SDS011;27185;52.040;4.490;2023-04-01T01:13:07;30.48;;;6.95;;
41446;SDS011;27185;52.040;4.490;2023-04-01T01:16:00;28.58;;;6.22;;
41446;SDS011;27185;52.040;4.490;2023-04-01T01:18:58;25.17;;;5.30;;
41446;SDS011;27185;52.040;4.490;2023-04-01T01:24:43;25.92;;;5.20;;
41446;SDS011;27185;52.040;4.490;2023-04-01T01:27:38;21.27;;;4.70;;
41446;SDS011;27185;52.040;4.490;2023-04-01T01:36:20;20.67;;;5.00;;
41446;SDS011;27185;52.040;4.490;2023-04-01T01:39:06;21.00;;;5.60;;
41446;SDS011;27185;52.040;4.490;2023-04-01T01:41:58;24.60;;;5.85;;
41446;SDS011;27185;52.040;4.490;2023-04-01T01:44:48;23.52;;;5.47;;
41446;SDS011;27185;52.040;4.490;2023-04-01T01:47:35;23.85;;;5.13;;
41446;SDS011;27185;52.040;4.490;2023-04-01T01:50:22;33.83;;;6.72;;
41446;SDS011;27185;52.040;4.490;2023-04-01T01:53:10;33.17;;;6.55;;
41446;SDS011;27185;52.040;4.490;2023-04-01T01:58:43;24.40;;;5.60;;
41446;SDS011;27185;52.040;4.490;2023-04-01T02:01:35;30.25;;;5.93;;
41446;SDS011;27185;52.040;4.490;2023-04-01T02:04:25;23.15;;;6.43;;
41446;SDS011;27185;52.040;4.490;2023-04-01T02:07:18;24.38;;;5.68;;
41446;SDS011;27185;52.040;4.490;2023-04-01T02:10:12;17.27;;;5.22;;
41446;SDS011;27185;52.040;4.490;2023-04-01T02:12:59;24.98;;;5.38;;
41446;SDS011;27185;52.040;4.490;2023-04-01T02:15:51;24.52;;;6.88;;
41446;SDS011;27185;52.040;4.490;2023-04-01T02:18:40;24.63;;;6.25;;
41446;SDS011;27185;52.040;4.490;2023-04-01T02:21:29;17.38;;;5.90;;
41446;SDS011;27185;52.040;4.490;2023-04-01T02:24:17;20.95;;;6.47;;
41446;SDS011;27185;52.040;4.490;2023-04-01T02:27:07;17.25;;;6.80;;
41446;SDS011;27185;52.040;4.490;2023-04-01T02:32:40;12.90;;;5.35;;
41446;SDS011;27185;52.040;4.490;2023-04-01T02:35:27;16.02;;;5.28;;
41446;SDS011;27185;52.040;4.490;2023-04-01T02:38:13;17.40;;;7.25;;
41446;SDS011;27185;52.040;4.490;2023-04-01T02:41:00;22.00;;;7.78;;
41446;SDS011;27185;52.040;4.490;2023-04-01T02:43:48;23.13;;;7.80;;
41446;SDS011;27185;52.040;4.490;2023-04-01T02:46:34;19.40;;;8.40;;
41446;SDS011;27185;52.040;4.490;2023-04-01T02:49:19;15.32;;;7.18;;
41446;SDS011;27185;52.040;4.490;2023-04-01T02:52:05;16.85;;;8.48;;
41446;SDS011;27185;52.040;4.490;2023-04-01T02:54:51;16.98;;;7.25;;
41446;SDS011;27185;52.040;4.490;2023-04-01T02:57:36;15.55;;;7.82;;
41446;SDS011;27185;52.040;4.490;2023-04-01T03:00:22;18.40;;;8.23;;
41446;SDS011;27185;52.040;4.490;2023-04-01T03:03:08;13.25;;;7.55;;
41446;SDS011;27185;52.040;4.490;2023-04-01T03:05:58;16.20;;;8.15;;
41446;SDS011;27185;52.040;4.490;2023-04-01T03:08:49;18.10;;;9.20;;
41446;SDS011;27185;52.040;4.490;2023-04-01T03:11:35;19.98;;;9.65;;
41446;SDS011;27185;52.040;4.490;2023-04-01T03:14:20;17.42;;;8.95;;
41446;SDS011;27185;52.040;4.490;2023-04-01T03:17:06;18.05;;;9.93;;
41446;SDS011;27185;52.040;4.490;2023-04-01T03:19:51;19.35;;;10.88;;
41446;SDS011;27185;52.040;4.490;2023-04-01T03:22:37;20.15;;;10.10;;
41446;SDS011;27185;52.040;4.490;2023-04-01T03:25:23;17.50;;;10.13;;
41446;SDS011;27185;52.040;4.490;2023-04-01T03:28:09;20.73;;;9.15;;
41446;SDS011;27185;52.040;4.490;2023-04-01T03:30:55;24.80;;;10.93;;
41446;SDS011;27185;52.040;4.490;2023-04-01T03:33:41;18.10;;;9.13;;
41446;SDS011;27185;52.040;4.490;2023-04-01T03:36:27;22.35;;;10.00;;
41446;SDS011;27185;52.040;4.490;2023-04-01T03:39:12;20.48;;;9.10;;
41446;SDS011;27185;52.040;4.490;2023-04-01T03:41:58;18.60;;;10.07;;
41446;SDS011;27185;52.040;4.490;2023-04-01T03:44:44;20.45;;;10.10;;
41446;SDS011;27185;52.040;4.490;2023-04-01T03:47:30;24.25;;;9.82;;
41446;SDS011;27185;52.040;4.490;2023-04-01T03:50:16;17.65;;;9.23;;
41446;SDS011;27185;52.040;4.490;2023-04-01T03:53:01;19.48;;;10.23;;
41446;SDS011;27185;52.040;4.490;2023-04-01T03:55:47;20.48;;;9.70;;
41446;SDS011;27185;52.040;4.490;2023-04-01T03:58:33;23.17;;;9.60;;
41446;SDS011;27185;52.040;4.490;2023-04-01T04:01:20;21.88;;;10.10;;
41446;SDS011;27185;52.040;4.490;2023-04-01T04:04:06;23.27;;;10.10;;
41446;SDS011;27185;52.040;4.490;2023-04-01T04:06:53;20.45;;;10.05;;
41446;SDS011;27185;52.040;4.490;2023-04-01T04:09:39;28.63;;;11.82;;
41446;SDS011;27185;52.040;4.490;2023-04-01T04:12:24;21.73;;;10.18;;
41446;SDS011;27185;52.040;4.490;2023-04-01T04:15:10;21.60;;;11.18;;
41446;SDS011;27185;52.040;4.490;2023-04-01T04:17:56;22.17;;;11.02;;
41446;SDS011;27185;52.040;4.490;2023-04-01T04:20:45;22.45;;;10.35;;
41446;SDS011;27185;52.040;4.490;2023-04-01T04:23:36;22.55;;;10.75;;
41446;SDS011;27185;52.040;4.490;2023-04-01T04:26:22;25.98;;;11.07;;
41446;SDS011;27185;52.040;4.490;2023-04-01T04:29:07;19.33;;;10.15;;
41446;SDS011;27185;52.040;4.490;2023-04-01T04:31:53;15.30;;;8.48;;
41446;SDS011;27185;52.040;4.490;2023-04-01T04:34:38;17.25;;;9.82;;
41446;SDS011;27185;52.040;4.490;2023-04-01T04:37:24;17.70;;;10.38;;
41446;SDS011;27185;52.040;4.490;2023-04-01T04:40:10;19.25;;;10.85;;
41446;SDS011;27185;52.040;4.490;2023-04-01T04:42:56;17.65;;;10.43;;
41446;SDS011;27185;52.040;4.490;2023-04-01T04:45:42;19.33;;;10.65;;
41446;SDS011;27185;52.040;4.490;2023-04-01T04:48:27;18.20;;;11.07;;
41446;SDS011;27185;52.040;4.490;2023-04-01T04:51:17;18.92;;;10.93;;
41446;SDS011;27185;52.040;4.490;2023-04-01T04:54:04;22.75;;;10.77;;
41446;SDS011;27185;52.040;4.490;2023-04-01T04:56:53;21.25;;;10.50;;
41446;SDS011;27185;52.040;4.490;2023-04-01T04:59:39;20.55;;;11.65;;
41446;SDS011;27185;52.040;4.490;2023-04-01T05:02:25;21.30;;;11.25;;
41446;SDS011;27185;52.040;4.490;2023-04-01T05:05:10;22.25;;;11.70;;
41446;SDS011;27185;52.040;4.490;2023-04-01T05:07:56;24.35;;;12.38;;
41446;SDS011;27185;52.040;4.490;2023-04-01T05:10:42;22.48;;;11.18;;
41446;SDS011;27185;52.040;4.490;2023-04-01T05:13:28;23.02;;;11.90;;
41446;SDS011;27185;52.040;4.490;2023-04-01T05:16:15;22.88;;;11.80;;
41446;SDS011;27185;52.040;4.490;2023-04-01T05:19:02;17.88;;;10.40;;
41446;SDS011;27185;52.040;4.490;2023-04-01T05:21:48;26.77;;;11.52;;
41446;SDS011;27185;52.040;4.490;2023-04-01T05:24:33;25.00;;;12.07;;
41446;SDS011;27185;52.040;4.490;2023-04-01T05:27:19;21.48;;;11.40;;
41446;SDS011;27185;52.040;4.490;2023-04-01T05:30:05;21.92;;;11.02;;
41446;SDS011;27185;52.040;4.490;2023-04-01T05:32:51;20.92;;;11.52;;
41446;SDS011;27185;52.040;4.490;2023-04-01T05:35:37;18.77;;;11.23;;
41446;SDS011;27185;52.040;4.490;2023-04-01T05:38:23;22.38;;;11.70;;
41446;SDS011;27185;52.040;4.490;2023-04-01T05:41:08;19.60;;;10.63;;
41446;SDS011;27185;52.040;4.490;2023-04-01T05:43:54;24.40;;;11.70;;
41446;SDS011;27185;52.040;4.490;2023-04-01T05:46:40;20.75;;;9.98;;
41446;SDS011;27185;52.040;4.490;2023-04-01T05:49:26;23.30;;;9.88;;
41446;SDS011;27185;52.040;4.490;2023-04-01T05:52:12;25.17;;;10.18;;
41446;SDS011;27185;52.040;4.490;2023-04-01T05:54:58;25.58;;;11.40;;
41446;SDS011;27185;52.040;4.490;2023-04-01T05:57:45;22.27;;;11.35;;
41446;SDS011;27185;52.040;4.490;2023-04-01T06:00:33;23.00;;;10.48;;
41446;SDS011;27185;52.040;4.490;2023-04-01T06:03:18;22.98;;;10.43;;
41446;SDS011;27185;52.040;4.490;2023-04-01T06:06:10;27.38;;;10.07;;
41446;SDS011;27185;52.040;4.490;2023-04-01T06:09:05;20.67;;;9.77;;
41446;SDS011;27185;52.040;4.490;2023-04-01T06:18:23;23.70;;;11.55;;
41446;SDS011;27185;52.040;4.490;2023-04-01T06:21:31;23.95;;;10.02;;
41446;SDS011;27185;52.040;4.490;2023-04-01T06:30:58;18.70;;;9.32;;
41446;SDS011;27185;52.040;4.490;2023-04-01T06:34:00;18.98;;;8.18;;
41446;SDS011;27185;52.040;4.490;2023-04-01T06:54:48;15.93;;;7.55;;
41446;SDS011;27185;52.040;4.490;2023-04-01T06:57:42;14.55;;;7.40;;
41446;SDS011;27185;52.040;4.490;2023-04-01T07:00:32;14.45;;;7.78;;
41446;SDS011;27185;52.040;4.490;2023-04-01T07:06:19;14.38;;;6.70;;
41446;SDS011;27185;52.040;4.490;2023-04-01T07:09:19;11.00;;;7.43;;
41446;SDS011;27185;52.040;4.490;2023-04-01T07:12:14;10.80;;;6.07;;
41446;SDS011;27185;52.040;4.490;2023-04-01T07:15:26;12.90;;;6.68;;
41446;SDS011;27185;52.040;4.490;2023-04-01T07:18:19;9.20;;;5.32;;
41446;SDS011;27185;52.040;4.490;2023-04-01T07:21:18;8.43;;;4.97;;
41446;SDS011;27185;52.040;4.490;2023-04-01T07:24:21;9.00;;;5.03;;
41446;SDS011;27185;52.040;4.490;2023-04-01T07:27:12;7.18;;;4.68;;
41446;SDS011;27185;52.040;4.490;2023-04-01T07:30:00;11.50;;;5.40;;
41446;SDS011;27185;52.040;4.490;2023-04-01T07:44:42;12.13;;;6.82;;
41446;SDS011;27185;52.040;4.490;2023-04-01T07:51:17;16.80;;;8.30;;
41446;SDS011;27185;52.040;4.490;2023-04-01T07:56:59;16.33;;;7.47;;
41446;SDS011;27185;52.040;4.490;2023-04-01T08:06:36;19.40;;;8.55;;
41446;SDS011;27185;52.040;4.490;2023-04-01T08:12:43;18.88;;;7.97;;
41446;SDS011;27185;52.040;4.490;2023-04-01T08:16:01;14.05;;;7.75;;
41446;SDS011;27185;52.040;4.490;2023-04-01T08:21:41;20.02;;;8.55;;
41446;SDS011;27185;52.040;4.490;2023-04-01T08:24:44;18.30;;;8.65;;
41446;SDS011;27185;52.040;4.490;2023-04-01T08:27:39;22.02;;;9.68;;
41446;SDS011;27185;52.040;4.490;2023-04-01T08:36:15;18.65;;;8.88;;
41446;SDS011;27185;52.040;4.490;2023-04-01T08:39:16;21.80;;;10.52;;
41446;SDS011;27185;52.040;4.490;2023-04-01T08:57:36;26.42;;;8.98;;
41446;SDS011;27185;52.040;4.490;2023-04-01T09:00:42;19.58;;;8.73;;
41446;SDS011;27185;52.040;4.490;2023-04-01T09:06:51;17.98;;;9.20;;
41446;SDS011;27185;52.040;4.490;2023-04-01T09:32:18;18.90;;;9.35;;
41446;SDS011;27185;52.040;4.490;2023-04-01T09:35:55;18.98;;;8.05;;
41446;SDS011;27185;52.040;4.490;2023-04-01T09:38:29;18.05;;;7.85;;
41446;SDS011;27185;52.040;4.490;2023-04-01T09:41:36;12.88;;;5.85;;
41446;SDS011;27185;52.040;4.490;2023-04-01T09:44:36;12.23;;;6.43;;
41446;SDS011;27185;52.040;4.490;2023-04-01T09:59:47;12.80;;;6.03;;
41446;SDS011;27185;52.040;4.490;2023-04-01T10:09:36;20.05;;;9.38;;
41446;SDS011;27185;52.040;4.490;2023-04-01T10:12:24;20.85;;;8.73;;
41446;SDS011;27185;52.040;4.490;2023-04-01T10:21:45;20.55;;;10.00;;
41446;SDS011;27185;52.040;4.490;2023-04-01T10:28:06;23.65;;;9.85;;
41446;SDS011;27185;52.040;4.490;2023-04-01T10:31:14;23.75;;;10.68;;
41446;SDS011;27185;52.040;4.490;2023-04-01T10:46:35;21.92;;;8.15;;
41446;SDS011;27185;52.040;4.490;2023-04-01T11:23:33;17.45;;;8.73;;
41446;SDS011;27185;52.040;4.490;2023-04-01T11:26:52;20.02;;;8.85;;
41446;SDS011;27185;52.040;4.490;2023-04-01T11:30:01;16.55;;;8.32;;
41446;SDS011;27185;52.040;4.490;2023-04-01T11:32:58;21.63;;;9.13;;
41446;SDS011;27185;52.040;4.490;2023-04-01T11:35:49;15.10;;;7.97;;
41446;SDS011;27185;52.040;4.490;2023-04-01T11:39:12;21.65;;;8.73;;
41446;SDS011;27185;52.040;4.490;2023-04-01T11:45:39;19.88;;;9.02;;
41446;SDS011;27185;52.040;4.490;2023-04-01T11:48:49;16.77;;;7.90;;
41446;SDS011;27185;52.040;4.490;2023-04-01T12:07:19;16.48;;;7.00;;
41446;SDS011;27185;52.040;4.490;2023-04-01T12:10:19;14.55;;;6.95;;
41446;SDS011;27185;52.040;4.490;2023-04-01T12:19:19;12.57;;;5.60;;
41446;SDS011;27185;52.040;4.490;2023-04-01T12:25:22;14.27;;;6.82;;
41446;SDS011;27185;52.040;4.490;2023-04-01T12:31:27;15.55;;;8.13;;
41446;SDS011;27185;52.040;4.490;2023-04-01T12:50:09;15.20;;;7.75;;
41446;SDS011;27185;52.040;4.490;2023-04-01T13:08:48;14.73;;;6.90;;
41446;SDS011;27185;52.040;4.490;2023-04-01T13:14:50;16.15;;;7.25;;
41446;SDS011;27185;52.040;4.490;2023-04-01T13:21:15;12.57;;;5.50;;
41446;SDS011;27185;52.040;4.490;2023-04-01T13:24:05;17.20;;;5.75;;
41446;SDS011;27185;52.040;4.490;2023-04-01T13:27:21;14.57;;;5.57;;
41446;SDS011;27185;52.040;4.490;2023-04-01T13:36:19;10.30;;;4.50;;
41446;SDS011;27185;52.040;4.490;2023-04-01T13:42:53;8.90;;;4.22;;
41446;SDS011;27185;52.040;4.490;2023-04-01T13:45:54;9.07;;;4.25;;
41446;SDS011;27185;52.040;4.490;2023-04-01T13:57:55;11.32;;;4.22;;
41446;SDS011;27185;52.040;4.490;2023-04-01T14:13:31;10.95;;;3.35;;
41446;SDS011;27185;52.040;4.490;2023-04-01T14:19:32;12.02;;;3.42;;
41446;SDS011;27185;52.040;4.490;2023-04-01T14:22:51;11.13;;;3.50;;
41446;SDS011;27185;52.040;4.490;2023-04-01T14:41:58;12.80;;;3.05;;
41446;SDS011;27185;52.040;4.490;2023-04-01T14:57:10;14.02;;;3.00;;
41446;SDS011;27185;52.040;4.490;2023-04-01T15:00:18;7.72;;;3.50;;
41446;SDS011;27185;52.040;4.490;2023-04-01T15:03:25;10.20;;;3.55;;
41446;SDS011;27185;52.040;4.490;2023-04-01T15:06:30;6.68;;;2.72;;
41446;SDS011;27185;52.040;4.490;2023-04-01T15:12:53;16.27;;;4.55;;
41446;SDS011;27185;52.040;4.490;2023-04-01T15:18:46;10.70;;;3.58;;
41446;SDS011;27185;52.040;4.490;2023-04-01T15:33:45;8.48;;;3.83;;
41446;SDS011;27185;52.040;4.490;2023-04-01T15:55:39;11.98;;;5.53;;
41446;SDS011;27185;52.040;4.490;2023-04-01T16:01:26;9.93;;;6.82;;
41446;SDS011;27185;52.040;4.490;2023-04-01T16:04:31;9.63;;;6.75;;
41446;SDS011;27185;52.040;4.490;2023-04-01T16:07:39;9.68;;;6.75;;
41446;SDS011;27185;52.040;4.490;2023-04-01T16:10:59;9.23;;;6.32;;
41446;SDS011;27185;52.040;4.490;2023-04-01T16:17:12;10.52;;;7.70;;
41446;SDS011;27185;52.040;4.490;2023-04-01T16:20:14;11.30;;;7.45;;
41446;SDS011;27185;52.040;4.490;2023-04-01T16:26:06;11.73;;;8.38;;
41446;SDS011;27185;52.040;4.490;2023-04-01T16:29:12;10.88;;;7.68;;
41446;SDS011;27185;52.040;4.490;2023-04-01T16:41:31;9.45;;;6.53;;
41446;SDS011;27185;52.040;4.490;2023-04-01T16:44:26;8.30;;;6.28;;
41446;SDS011;27185;52.040;4.490;2023-04-01T16:47:13;8.15;;;5.53;;
41446;SDS011;27185;52.040;4.490;2023-04-01T16:56:07;6.63;;;5.40;;
41446;SDS011;27185;52.040;4.490;2023-04-01T16:59:06;8.07;;;5.65;;
41446;SDS011;27185;52.040;4.490;2023-04-01T17:02:16;6.78;;;5.45;;
41446;SDS011;27185;52.040;4.490;2023-04-01T17:05:06;8.32;;;5.78;;
41446;SDS011;27185;52.040;4.490;2023-04-01T17:17:29;8.55;;;5.60;;
41446;SDS011;27185;52.040;4.490;2023-04-01T17:20:42;9.00;;;6.00;;
41446;SDS011;27185;52.040;4.490;2023-04-01T17:23:43;6.57;;;5.30;;
41446;SDS011;27185;52.040;4.490;2023-04-01T17:26:42;7.57;;;6.15;;
41446;SDS011;27185;52.040;4.490;2023-04-01T17:29:43;9.02;;;6.75;;
41446;SDS011;27185;52.040;4.490;2023-04-01T17:35:42;7.50;;;5.57;;
41446;SDS011;27185;52.040;4.490;2023-04-01T17:44:59;8.15;;;5.65;;
41446;SDS011;27185;52.040;4.490;2023-04-01T17:48:01;8.48;;;6.05;;
41446;SDS011;27185;52.040;4.490;2023-04-01T17:57:24;9.18;;;5.78;;
41446;SDS011;27185;52.040;4.490;2023-04-01T18:00:39;6.80;;;5.45;;
41446;SDS011;27185;52.040;4.490;2023-04-01T18:07:07;7.70;;;5.20;;
41446;SDS011;27185;52.040;4.490;2023-04-01T18:10:31;7.95;;;5.30;;
41446;SDS011;27185;52.040;4.490;2023-04-01T18:22:44;7.80;;;5.93;;
41446;SDS011;27185;52.040;4.490;2023-04-01T18:25:34;7.70;;;5.38;;
41446;SDS011;27185;52.040;4.490;2023-04-01T18:28:36;7.78;;;4.57;;
41446;SDS011;27185;52.040;4.490;2023-04-01T18:31:31;6.97;;;4.90;;
41446;SDS011;27185;52.040;4.490;2023-04-01T18:40:26;5.18;;;4.68;;
41446;SDS011;27185;52.040;4.490;2023-04-01T18:43:33;5.35;;;4.20;;
41446;SDS011;27185;52.040;4.490;2023-04-01T18:46:36;7.95;;;4.43;;
41446;SDS011;27185;52.040;4.490;2023-04-01T18:55:29;6.13;;;4.82;;
41446;SDS011;27185;52.040;4.490;2023-04-01T19:01:51;5.70;;;4.63;;
41446;SDS011;27185;52.040;4.490;2023-04-01T19:05:07;5.95;;;4.47;;
41446;SDS011;27185;52.040;4.490;2023-04-01T19:17:29;5.68;;;5.07;;
41446;SDS011;27185;52.040;4.490;2023-04-01T19:20:47;8.93;;;6.03;;
41446;SDS011;27185;52.040;4.490;2023-04-01T19:27:14;5.90;;;5.30;;
41446;SDS011;27185;52.040;4.490;2023-04-01T19:30:10;5.80;;;4.97;;
41446;SDS011;27185;52.040;4.490;2023-04-01T19:33:03;6.00;;;4.75;;
41446;SDS011;27185;52.040;4.490;2023-04-01T19:48:03;5.72;;;5.07;;
41446;SDS011;27185;52.040;4.490;2023-04-01T19:51:06;7.60;;;5.35;;
41446;SDS011;27185;52.040;4.490;2023-04-01T19:57:17;6.93;;;5.13;;
41446;SDS011;27185;52.040;4.490;2023-04-01T20:03:15;8.15;;;6.47;;
41446;SDS011;27185;52.040;4.490;2023-04-01T20:06:50;11.32;;;6.68;;
41446;SDS011;27185;52.040;4.490;2023-04-01T20:15:36;8.88;;;7.45;;
41446;SDS011;27185;52.040;4.490;2023-04-01T20:18:39;9.70;;;7.50;;
41446;SDS011;27185;52.040;4.490;2023-04-01T20:21:46;11.65;;;8.05;;
41446;SDS011;27185;52.040;4.490;2023-04-01T20:24:41;9.70;;;6.75;;
41446;SDS011;27185;52.040;4.490;2023-04-01T20:27:31;10.20;;;8.00;;
41446;SDS011;27185;52.040;4.490;2023-04-01T20:36:34;10.40;;;8.07;;
41446;SDS011;27185;52.040;4.490;2023-04-01T20:39:32;8.95;;;8.00;;
41446;SDS011;27185;52.040;4.490;2023-04-01T20:42:32;9.88;;;7.78;;
41446;SDS011;27185;52.040;4.490;2023-04-01T20:51:37;13.40;;;8.75;;
41446;SDS011;27185;52.040;4.490;2023-04-01T20:57:25;9.75;;;6.72;;
41446;SDS011;27185;52.040;4.490;2023-04-01T21:09:31;8.05;;;4.93;;
41446;SDS011;27185;52.040;4.490;2023-04-01T21:12:39;6.53;;;5.82;;
41446;SDS011;27185;52.040;4.490;2023-04-01T21:15:57;9.43;;;7.30;;
41446;SDS011;27185;52.040;4.490;2023-04-01T21:21:49;9.88;;;7.47;;
41446;SDS011;27185;52.040;4.490;2023-04-01T21:37:27;6.72;;;5.05;;
41446;SDS011;27185;52.040;4.490;2023-04-01T22:06:23;6.68;;;5.03;;
41446;SDS011;27185;52.040;4.490;2023-04-01T22:09:39;7.05;;;5.03;;
41446;SDS011;27185;52.040;4.490;2023-04-01T22:12:48;6.15;;;4.60;;
41446;SDS011;27185;52.040;4.490;2023-04-01T22:18:32;7.45;;;5.30;;
41446;SDS011;27185;52.040;4.490;2023-04-01T22:21:22;10.00;;;5.45;;
41446;SDS011;27185;52.040;4.490;2023-04-01T22:25:07;7.40;;;5.53;;
41446;SDS011;27185;52.040;4.490;2023-04-01T22:28:09;8.10;;;5.40;;
41446;SDS011;27185;52.040;4.490;2023-04-01T22:31:02;7.65;;;5.90;;
41446;SDS011;27185;52.040;4.490;2023-04-01T22:37:03;9.90;;;6.03;;
41446;SDS011;27185;52.040;4.490;2023-04-01T22:40:07;9.38;;;6.28;;
41446;SDS011;27185;52.040;4.490;2023-04-01T22:43:08;10.60;;;6.83;;
41446;SDS011;27185;52.040;4.490;2023-04-01T22:49:28;9.07;;;6.97;;
41446;SDS011;27185;52.040;4.490;2023-04-01T22:52:30;8.48;;;6.82;;
41446;SDS011;27185;52.040;4.490;2023-04-01T22:55:24;11.85;;;6.93;;
41446;SDS011;27185;52.040;4.490;2023-04-01T22:58:18;10.80;;;7.05;;
41446;SDS011;27185;52.040;4.490;2023-04-01T23:01:22;10.70;;;7.95;;
41446;SDS011;27185;52.040;4.490;2023-04-01T23:04:12;11.90;;;7.68;;
41446;SDS011;27185;52.040;4.490;2023-04-01T23:07:14;12.43;;;7.03;;
41446;SDS011;27185;52.040;4.490;2023-04-01T23:13:33;14.32;;;7.70;;
41446;SDS011;27185;52.040;4.490;2023-04-01T23:16:25;9.25;;;6.90;;
41446;SDS011;27185;52.040;4.490;2023-04-01T23:19:18;10.73;;;7.15;;
41446;SDS011;27185;52.040;4.490;2023-04-01T23:25:32;12.50;;;7.13;;
41446;SDS011;27185;52.040;4.490;2023-04-01T23:28:47;11.30;;;7.25;;
41446;SDS011;27185;52.040;4.490;2023-04-01T23:31:42;16.15;;;8.10;;
41446;SDS011;27185;52.040;4.490;2023-04-01T23:34:33;14.65;;;7.80;;
41446;SDS011;27185;52.040;4.490;2023-04-01T23:37:20;13.52;;;8.50;;
41446;SDS011;27185;52.040;4.490;2023-04-01T23:40:10;11.30;;;8.30;;
41446;SDS011;27185;52.040;4.490;2023-04-01T23:42:58;11.50;;;8.80;;
41446;SDS011;27185;52.040;4.490;2023-04-01T23:45:43;13.00;;;8.05;;
41446;SDS011;27185;52.040;4.490;2023-04-01T23:48:31;12.85;;;8.10;;
41446;SDS011;27185;52.040;4.490;2023-04-01T23:51:23;15.30;;;8.55;;
41446;SDS011;27185;52.040;4.490;2023-04-01T23:54:18;14.10;;;9.15;;
41446;SDS011;27185;52.040;4.490;2023-04-01T23:57:14;17.10;;;9.18;;
